Time;durP1;ratioP1;P1;durP2;ratioP2;P2;SDS_P1;SDS_P2;PMS_P1;PMS_P2;Temp;Humidity;BMP_temperature;BMP_pressure;BME280_temperature;BME280_humidity;BME280_pressure;Samples;Min_cycle;Max_cycle;Signal;HPM_P1;HPM_P2
2022/12/18 00:02:00;;;;;;;41.10;24.40;;;-4.50;99.90;;;;;;5032407;28;20552;-53
2022/12/18 00:04:27;;;;;;;41.37;25.43;;;-4.50;99.90;;;;;;5032015;28;20471;-52
2022/12/18 00:06:54;;;;;;;36.83;23.83;;;-4.50;99.90;;;;;;5032168;28;20474;-52
2022/12/18 00:09:21;;;;;;;38.87;23.60;;;-4.50;99.90;;;;;;5032451;28;20441;-52
2022/12/18 00:11:47;;;;;;;37.10;22.90;;;-4.50;99.90;;;;;;5031343;28;20487;-54
2022/12/18 00:14:15;;;;;;;37.57;23.37;;;-4.50;99.90;;;;;;5031775;28;20498;-52
2022/12/18 00:16:45;;;;;;;37.27;23.80;;;-4.60;99.90;;;;;;5032200;28;20500;-52
2022/12/18 00:19:13;;;;;;;37.17;23.73;;;-4.60;99.90;;;;;;5032089;28;20859;-52
2022/12/18 00:21:43;;;;;;;35.87;23.37;;;-4.60;99.90;;;;;;5031978;28;20474;-52
2022/12/18 00:24:10;;;;;;;37.40;23.73;;;-4.70;99.90;;;;;;5032058;28;20494;-53
2022/12/18 00:26:39;;;;;;;41.73;26.03;;;-4.60;99.90;;;;;;5030887;28;20502;-53
2022/12/18 00:29:07;;;;;;;45.07;25.23;;;-4.70;99.90;;;;;;5031981;28;20470;-52
2022/12/18 00:31:36;;;;;;;39.07;26.27;;;-4.60;99.90;;;;;;5032423;28;20482;-53
2022/12/18 00:34:03;;;;;;;43.40;26.80;;;-4.60;99.90;;;;;;5031376;28;20509;-52
2022/12/18 00:36:31;;;;;;;36.23;24.13;;;-4.70;99.90;;;;;;5029566;28;20498;-53
2022/12/18 00:38:59;;;;;;;39.23;24.27;;;-4.80;99.90;;;;;;5031945;28;20478;-51
2022/12/18 00:44:13;;;;;;;37.67;21.80;;;-4.80;99.90;;;;;;5031436;28;20566;-53
2022/12/18 00:46:42;;;;;;;39.30;23.50;;;-4.80;99.90;;;;;;5031597;28;20474;-53
2022/12/18 00:49:08;;;;;;;38.07;23.43;;;-4.90;99.90;;;;;;5030843;28;20470;-52
2022/12/18 00:51:35;;;;;;;36.53;21.33;;;-4.90;99.90;;;;;;5023654;28;20474;-53
2022/12/18 00:54:02;;;;;;;34.50;21.33;;;-5.00;99.90;;;;;;5031675;28;21010;-52
2022/12/18 00:56:28;;;;;;;33.00;22.20;;;-5.00;99.90;;;;;;5030601;28;20458;-52
2022/12/18 00:58:55;;;;;;;37.80;22.30;;;-5.00;99.90;;;;;;5030271;28;20508;-52
2022/12/18 01:01:21;;;;;;;38.50;24.50;;;-5.00;99.90;;;;;;5031455;28;20536;-51
2022/12/18 01:03:49;;;;;;;36.57;23.03;;;-4.90;99.90;;;;;;5031342;28;20505;-52
2022/12/18 01:06:17;;;;;;;37.07;23.83;;;-4.90;99.90;;;;;;5030507;28;20471;-51
2022/12/18 01:08:44;;;;;;;37.50;24.00;;;-4.80;99.90;;;;;;5031537;28;20478;-53
2022/12/18 01:11:12;;;;;;;44.60;26.33;;;-4.80;99.90;;;;;;5030283;28;20489;-51
2022/12/18 01:13:39;;;;;;;43.43;25.67;;;-4.70;99.90;;;;;;5030682;28;20858;-53
2022/12/18 01:16:06;;;;;;;39.73;24.83;;;-4.60;99.90;;;;;;5031602;28;20489;-53
2022/12/18 01:18:32;;;;;;;39.47;24.47;;;-4.70;99.90;;;;;;5031588;28;20485;-53
2022/12/18 01:21:00;;;;;;;41.50;25.23;;;-4.60;99.90;;;;;;5031362;28;21058;-53
2022/12/18 01:23:30;;;;;;;40.27;24.97;;;-4.70;99.90;;;;;;5030145;28;20474;-51
2022/12/18 01:25:56;;;;;;;42.93;25.53;;;-4.70;99.90;;;;;;5031622;28;20948;-51
2022/12/18 01:28:23;;;;;;;38.47;23.53;;;-4.70;99.90;;;;;;5030365;28;20498;-53
2022/12/18 01:30:49;;;;;;;38.27;23.07;;;-4.70;99.90;;;;;;5031458;28;20471;-53
2022/12/18 01:33:16;;;;;;;42.27;24.97;;;-4.80;99.90;;;;;;5031344;28;20474;-51
2022/12/18 01:35:45;;;;;;;37.33;24.53;;;-5.00;99.90;;;;;;5030993;28;20486;-52
2022/12/18 01:38:13;;;;;;;40.20;23.20;;;-4.90;99.90;;;;;;5030257;28;20832;-52
2022/12/18 01:40:40;;;;;;;43.27;25.10;;;-4.90;99.90;;;;;;5030929;28;20517;-52
2022/12/18 01:43:08;;;;;;;40.30;23.47;;;-4.90;99.90;;;;;;5029415;28;20467;-52
2022/12/18 01:45:35;;;;;;;40.60;24.10;;;-5.00;99.90;;;;;;5023115;28;20490;-52
2022/12/18 01:48:03;;;;;;;41.10;24.20;;;-5.00;99.90;;;;;;5034041;28;20478;-52
2022/12/18 01:50:33;;;;;;;39.73;23.93;;;-5.00;99.90;;;;;;5034949;28;20874;-51
2022/12/18 01:53:03;;;;;;;38.50;23.43;;;-5.00;99.90;;;;;;5034849;28;20544;-53
2022/12/18 01:55:35;;;;;;;39.57;23.63;;;-5.00;99.90;;;;;;5032281;28;20843;-52
2022/12/18 01:58:02;;;;;;;36.40;22.77;;;-5.00;99.90;;;;;;5033523;28;20494;-52
2022/12/18 02:00:30;;;;;;;35.77;22.00;;;-5.10;99.90;;;;;;5034588;28;20506;-51
2022/12/18 02:02:57;;;;;;;39.13;23.47;;;-5.30;99.90;;;;;;5034578;28;20994;-52
2022/12/18 02:05:35;;;;;;;40.93;22.40;;;-5.30;99.90;;;;;;5034305;28;20899;-52
2022/12/18 02:08:10;;;;;;;33.33;21.50;;;-5.20;99.90;;;;;;5034808;28;20784;-51
2022/12/18 02:10:46;;;;;;;37.67;23.50;;;-5.20;99.90;;;;;;5033562;28;20462;-52
2022/12/18 02:13:18;;;;;;;37.73;23.50;;;-5.30;99.90;;;;;;5033317;28;20497;-52
2022/12/18 02:15:51;;;;;;;41.10;23.80;;;-5.20;99.90;;;;;;5034064;28;20482;-51
2022/12/18 02:18:23;;;;;;;41.70;23.67;;;-5.20;99.90;;;;;;5034255;28;20964;-52
2022/12/18 02:20:56;;;;;;;38.30;23.67;;;-5.10;99.90;;;;;;5034409;28;20568;-52
2022/12/18 02:23:38;;;;;;;38.37;23.07;;;-5.10;99.90;;;;;;5034334;28;20485;-53
2022/12/18 02:26:18;;;;;;;37.80;23.00;;;-5.30;99.90;;;;;;5033739;28;20475;-53
2022/12/18 02:28:48;;;;;;;32.57;21.67;;;-5.20;99.90;;;;;;5030582;28;20547;-53
2022/12/18 02:31:23;;;;;;;37.53;23.63;;;-5.20;99.90;;;;;;5034237;28;20497;-52
2022/12/18 02:33:53;;;;;;;32.73;21.90;;;-5.20;99.90;;;;;;5033563;28;21065;-52
2022/12/18 02:36:22;;;;;;;33.63;21.67;;;-5.20;99.90;;;;;;5034102;28;20477;-52
2022/12/18 02:38:49;;;;;;;41.50;24.10;;;-5.30;99.90;;;;;;5034022;28;20471;-52
2022/12/18 02:41:18;;;;;;;38.40;23.07;;;-5.30;99.90;;;;;;5034017;28;20518;-52
2022/12/18 02:43:55;;;;;;;35.07;22.47;;;-5.30;99.90;;;;;;5033195;28;20477;-52
2022/12/18 02:46:29;;;;;;;35.03;22.43;;;-5.30;99.90;;;;;;5032162;28;20871;-52
2022/12/18 02:49:05;;;;;;;33.70;21.33;;;-5.10;99.90;;;;;;5032813;28;20451;-53
2022/12/18 02:51:44;;;;;;;37.30;22.00;;;-5.20;99.90;;;;;;5032851;28;21038;-53
2022/12/18 02:54:20;;;;;;;41.23;24.47;;;-5.20;99.90;;;;;;5033441;28;20498;-52
2022/12/18 02:56:52;;;;;;;40.00;24.37;;;-5.30;99.90;;;;;;5030333;28;21026;-52
2022/12/18 02:59:23;;;;;;;41.30;23.57;;;-5.30;99.90;;;;;;5032745;28;20482;-51
2022/12/18 03:01:56;;;;;;;43.43;24.20;;;-5.20;99.90;;;;;;5033529;28;20578;-51
2022/12/18 03:04:27;;;;;;;44.60;25.87;;;-5.10;99.90;;;;;;5032031;28;20529;-52
2022/12/18 03:06:57;;;;;;;40.60;25.10;;;-5.10;99.90;;;;;;5033401;28;21138;-52
2022/12/18 03:09:30;;;;;;;42.50;25.00;;;-5.10;99.90;;;;;;5033308;28;20478;-53
2022/12/18 03:12:25;;;;;;;41.87;24.87;;;-5.10;99.90;;;;;;5032693;28;20443;-53
2022/12/18 03:14:56;;;;;;;43.37;24.13;;;-5.20;99.90;;;;;;5027186;28;20470;-52
2022/12/18 03:17:25;;;;;;;32.27;21.47;;;-5.20;99.90;;;;;;5033330;28;20489;-52
2022/12/18 03:19:54;;;;;;;30.37;19.60;;;-5.40;99.90;;;;;;5033033;28;20545;-53
2022/12/18 03:22:24;;;;;;;35.50;21.30;;;-5.60;99.90;;;;;;5033316;28;20964;-51
2022/12/18 03:24:51;;;;;;;35.97;22.00;;;-5.50;99.90;;;;;;5032891;28;20494;-51
2022/12/18 03:27:24;;;;;;;32.87;20.67;;;-5.60;99.90;;;;;;5031958;28;20980;-52
2022/12/18 03:29:55;;;;;;;36.57;24.07;;;-5.70;99.90;;;;;;5032247;28;20605;-51
2022/12/18 03:32:26;;;;;;;39.07;22.87;;;-5.60;99.90;;;;;;5032699;28;20486;-51
2022/12/18 03:34:56;;;;;;;34.03;21.57;;;-5.60;99.90;;;;;;5031616;22;20591;-52
2022/12/18 03:37:22;;;;;;;38.60;22.47;;;-5.60;99.90;;;;;;5013055;28;21035;-52
2022/12/18 03:39:49;;;;;;;31.60;21.13;;;-5.60;99.90;;;;;;5009199;28;20492;-52
2022/12/18 03:42:26;;;;;;;34.83;23.13;;;-5.60;99.90;;;;;;4991087;28;20583;-53
2022/12/18 03:44:58;;;;;;;35.53;21.97;;;-5.50;99.90;;;;;;4984828;28;20499;-52
2022/12/18 03:47:30;;;;;;;36.50;22.70;;;-5.50;99.90;;;;;;4993648;28;20480;-52
2022/12/18 03:50:04;;;;;;;42.07;25.00;;;-5.60;99.90;;;;;;4993362;28;20862;-52
2022/12/18 03:52:37;;;;;;;38.97;23.43;;;-5.50;99.90;;;;;;4993366;28;20961;-53
2022/12/18 03:55:05;;;;;;;40.80;25.13;;;-5.50;99.90;;;;;;4991650;28;21025;-51
2022/12/18 03:57:34;;;;;;;37.13;24.00;;;-5.50;99.90;;;;;;4982111;28;20500;-52
2022/12/18 04:00:04;;;;;;;37.97;23.80;;;-5.50;99.90;;;;;;4973913;28;20481;-52
2022/12/18 04:02:32;;;;;;;36.30;22.93;;;-5.50;99.90;;;;;;4974001;28;20473;-52
2022/12/18 04:05:04;;;;;;;37.00;23.43;;;-5.50;99.90;;;;;;4973550;28;20492;-51
2022/12/18 04:07:31;;;;;;;42.07;25.20;;;-5.60;99.90;;;;;;4973429;28;20484;-51
2022/12/18 04:09:59;;;;;;;40.40;23.27;;;-5.60;99.90;;;;;;4985862;28;20898;-52
2022/12/18 04:12:26;;;;;;;42.17;23.60;;;-5.70;99.90;;;;;;4992086;28;20445;-52
2022/12/18 04:14:55;;;;;;;44.57;22.37;;;-5.70;99.90;;;;;;4992646;28;21004;-52
2022/12/18 04:17:22;;;;;;;38.30;24.47;;;-5.90;99.90;;;;;;4992887;28;20873;-51
2022/12/18 04:19:48;;;;;;;46.93;25.80;;;-5.80;99.90;;;;;;4992850;28;20607;-51
2022/12/18 04:22:15;;;;;;;43.33;26.50;;;-5.80;99.90;;;;;;4991294;28;20583;-52
2022/12/18 04:24:41;;;;;;;39.10;24.40;;;-5.80;99.90;;;;;;4982534;28;20572;-52
2022/12/18 04:27:08;;;;;;;42.90;25.00;;;-5.80;99.90;;;;;;4981548;28;20484;-52
2022/12/18 04:29:35;;;;;;;38.60;24.60;;;-5.70;99.90;;;;;;4980640;28;20473;-53
2022/12/18 04:32:03;;;;;;;48.20;27.93;;;-5.70;99.90;;;;;;4980254;28;20441;-53
2022/12/18 04:34:29;;;;;;;50.80;28.37;;;-5.90;99.90;;;;;;4983408;28;21013;-51
2022/12/18 04:36:56;;;;;;;51.93;29.47;;;-5.90;99.90;;;;;;5000287;28;20977;-52
2022/12/18 04:39:22;;;;;;;51.23;28.90;;;-5.90;99.90;;;;;;5001246;28;20547;-52
2022/12/18 04:41:49;;;;;;;57.43;28.63;;;-5.90;99.90;;;;;;4992587;28;20519;-52
2022/12/18 04:44:15;;;;;;;58.10;30.27;;;-5.90;99.90;;;;;;4992135;28;20551;-51
2022/12/18 04:46:42;;;;;;;58.30;31.43;;;-5.90;99.90;;;;;;4992501;28;20484;-52
2022/12/18 04:49:10;;;;;;;59.73;33.10;;;-5.80;99.90;;;;;;4993902;28;20537;-51
2022/12/18 04:51:37;;;;;;;55.63;32.27;;;-5.80;99.90;;;;;;4996017;28;20448;-52
2022/12/18 04:54:04;;;;;;;54.97;31.73;;;-5.90;99.90;;;;;;5003065;28;20563;-51
2022/12/18 04:56:31;;;;;;;61.73;33.10;;;-5.80;99.90;;;;;;5000512;28;20488;-51
2022/12/18 04:58:58;;;;;;;59.47;32.87;;;-5.80;99.90;;;;;;4992413;28;20989;-52
2022/12/18 05:01:25;;;;;;;60.73;33.97;;;-5.80;99.90;;;;;;4992318;28;20579;-51
2022/12/18 05:03:52;;;;;;;77.63;34.67;;;-5.80;99.90;;;;;;4994790;28;20929;-51
2022/12/18 05:06:20;;;;;;;59.07;34.27;;;-5.90;99.90;;;;;;5000291;28;20539;-51
2022/12/18 05:08:46;;;;;;;59.17;33.13;;;-5.80;99.90;;;;;;5002286;28;20456;-52
2022/12/18 05:11:15;;;;;;;59.40;33.20;;;-5.90;99.90;;;;;;5003816;28;20483;-52
2022/12/18 05:13:42;;;;;;;68.00;36.07;;;-6.00;99.90;;;;;;5011545;28;20471;-51
2022/12/18 05:16:09;;;;;;;60.77;34.07;;;-6.00;99.90;;;;;;5011854;28;20530;-52
2022/12/18 05:18:36;;;;;;;57.40;33.37;;;-6.00;99.90;;;;;;5003182;28;20502;-52
2022/12/18 05:21:02;;;;;;;62.40;33.17;;;-6.00;99.90;;;;;;4997385;28;20527;-52
2022/12/18 05:23:30;;;;;;;61.87;33.70;;;-5.90;99.90;;;;;;5002703;28;20507;-52
2022/12/18 05:25:59;;;;;;;58.90;33.93;;;-5.90;99.90;;;;;;5001242;28;20547;-52
2022/12/18 05:28:26;;;;;;;63.33;35.53;;;-5.80;99.90;;;;;;4996012;28;20484;-51
2022/12/18 05:30:56;;;;;;;61.97;36.00;;;-5.80;99.90;;;;;;5003368;28;20491;-51
2022/12/18 05:33:23;;;;;;;72.20;34.93;;;-5.80;99.90;;;;;;4997121;28;20488;-54
2022/12/18 05:35:52;;;;;;;69.50;36.40;;;-5.80;99.90;;;;;;4995859;28;20539;-52
2022/12/18 05:38:18;;;;;;;67.50;36.40;;;-5.80;99.90;;;;;;4998128;28;20459;-53
2022/12/18 05:40:47;;;;;;;62.10;34.00;;;-5.80;99.90;;;;;;5006091;28;20535;-51
2022/12/18 05:43:14;;;;;;;65.53;36.20;;;-5.80;99.90;;;;;;5015149;28;20551;-51
2022/12/18 05:45:41;;;;;;;66.43;36.20;;;-6.00;81.60;;;;;;5014840;28;20960;-52
2022/12/18 05:48:08;;;;;;;67.10;37.00;;;-6.00;21.30;;;;;;5015279;28;21109;-51
2022/12/18 05:50:35;;;;;;;68.40;35.60;;;-5.90;99.90;;;;;;5015218;28;21000;-51
2022/12/18 05:53:02;;;;;;;67.17;36.73;;;-6.00;99.90;;;;;;5007495;28;20469;-52
2022/12/18 05:55:29;;;;;;;73.87;36.40;;;-5.90;99.90;;;;;;5003329;28;20492;-52
2022/12/18 05:57:56;;;;;;;66.67;37.07;;;-5.90;99.90;;;;;;4995453;28;20452;-52
2022/12/18 06:00:23;;;;;;;70.23;37.10;;;-5.90;99.90;;;;;;4995421;28;20981;-51
2022/12/18 06:02:50;;;;;;;72.63;37.63;;;-5.80;99.90;;;;;;4995585;28;20579;-53
2022/12/18 06:05:16;;;;;;;73.07;38.50;;;-5.80;96.90;;;;;;4995044;28;20551;-51
2022/12/18 06:07:43;;;;;;;64.77;36.40;;;-5.90;86.80;;;;;;5004936;28;20506;-53
2022/12/18 06:10:10;;;;;;;75.50;39.17;;;-5.90;22.20;;;;;;4998510;28;20480;-51
2022/12/18 06:12:36;;;;;;;75.07;39.80;;;-5.90;78.50;;;;;;4995206;28;20535;-52
2022/12/18 06:15:05;;;;;;;65.87;35.57;;;-6.00;21.80;;;;;;4994825;28;20578;-53
2022/12/18 06:17:32;;;;;;;59.00;34.30;;;-6.00;99.90;;;;;;4995401;28;20532;-52
2022/12/18 06:19:59;;;;;;;59.80;34.53;;;-5.90;99.90;;;;;;5001490;28;20933;-52
2022/12/18 06:22:25;;;;;;;69.83;35.17;;;-5.90;99.90;;;;;;5005016;28;21024;-52
2022/12/18 06:24:52;;;;;;;58.77;31.13;;;-5.90;99.90;;;;;;5008755;28;20526;-52
2022/12/18 06:27:19;;;;;;;56.87;31.67;;;-6.00;25.40;;;;;;5014495;28;20456;-54
2022/12/18 06:29:46;;;;;;;52.80;30.37;;;-5.90;97.40;;;;;;5015030;28;20475;-51
2022/12/18 06:32:13;;;;;;;51.50;29.30;;;-6.00;27.10;;;;;;5014836;28;20448;-52
2022/12/18 06:34:40;;;;;;;48.67;29.13;;;-6.10;21.20;;;;;;5004134;28;20590;-52
2022/12/18 06:37:07;;;;;;;51.90;30.83;;;-6.10;90.30;;;;;;5005591;28;20491;-52
2022/12/18 06:39:33;;;;;;;54.40;29.53;;;-6.10;20.00;;;;;;5002884;28;20507;-52
2022/12/18 06:42:00;;;;;;;50.90;28.33;;;-6.10;91.70;;;;;;4994639;28;20571;-52
2022/12/18 06:44:27;;;;;;;49.80;28.43;;;-6.00;99.90;;;;;;4994859;28;20534;-52
2022/12/18 06:46:53;;;;;;;50.00;28.43;;;-6.00;99.90;;;;;;4996046;28;20928;-52
2022/12/18 06:49:21;;;;;;;46.53;26.67;;;-6.00;87.70;;;;;;5004662;28;20531;-52
2022/12/18 06:51:48;;;;;;;52.63;29.13;;;-6.00;97.20;;;;;;4997038;28;20547;-52
2022/12/18 06:54:14;;;;;;;52.90;29.77;;;-6.00;86.50;;;;;;5004360;28;20578;-52
2022/12/18 06:56:41;;;;;;;48.13;29.40;;;-6.00;76.10;;;;;;4994322;28;20483;-51
2022/12/18 06:59:07;;;;;;;53.33;28.03;;;-6.00;24.50;;;;;;4994861;28;20483;-52
2022/12/18 07:01:34;;;;;;;52.10;27.70;;;-6.00;25.10;;;;;;4999234;28;20935;-52
2022/12/18 07:04:00;;;;;;;46.60;27.27;;;-6.10;27.10;;;;;;5002329;28;20555;-51
2022/12/18 07:06:28;;;;;;;49.77;27.87;;;-6.10;20.70;;;;;;4994328;28;20527;-52
2022/12/18 07:08:55;;;;;;;51.10;29.60;;;-6.10;85.00;;;;;;5002954;28;20555;-52
2022/12/18 07:11:22;;;;;;;45.17;26.57;;;-6.10;78.60;;;;;;5012498;28;20447;-52
2022/12/18 07:13:48;;;;;;;44.50;26.60;;;-6.00;99.90;;;;;;5013738;28;20558;-51
2022/12/18 07:16:17;;;;;;;49.90;32.17;;;-6.00;94.90;;;;;;5004769;28;20504;-52
2022/12/18 07:18:44;;;;;;;205.63;163.80;;;-5.90;77.40;;;;;;5001239;28;20883;-52
2022/12/18 07:21:13;;;;;;;101.97;80.73;;;-6.00;22.60;;;;;;4995487;28;20496;-51
2022/12/18 07:23:40;;;;;;;56.10;37.20;;;-6.00;23.30;;;;;;5005525;28;20542;-52
2022/12/18 07:26:09;;;;;;;60.47;37.80;;;-6.00;99.90;;;;;;5015076;28;20483;-52
2022/12/18 07:28:37;;;;;;;48.27;27.87;;;-5.90;95.20;;;;;;5013896;28;20479;-52
2022/12/18 07:31:04;;;;;;;44.70;25.40;;;-5.90;85.50;;;;;;5013611;28;20475;-51
2022/12/18 07:33:31;;;;;;;44.47;28.10;;;-5.90;75.00;;;;;;5013226;28;20532;-51
2022/12/18 07:35:59;;;;;;;41.30;25.03;;;-6.00;76.20;;;;;;5013254;28;20487;-52
2022/12/18 07:38:25;;;;;;;42.87;25.83;;;-5.90;76.90;;;;;;5006550;28;20507;-51
2022/12/18 07:40:53;;;;;;;47.97;27.50;;;-5.90;84.10;;;;;;5006989;28;20508;-51
2022/12/18 07:43:20;;;;;;;47.90;27.33;;;-5.90;87.80;;;;;;5003266;28;21071;-53
2022/12/18 07:45:49;;;;;;;51.60;27.40;;;-5.90;87.60;;;;;;4993024;28;20539;-52
2022/12/18 07:48:16;;;;;;;49.77;26.40;;;-5.90;85.50;;;;;;4993700;28;20500;-51
2022/12/18 07:50:43;;;;;;;47.65;26.35;;;-5.90;99.90;;;;;;4993391;28;20527;-53
2022/12/18 07:53:09;;;;;;;48.17;26.57;;;-5.80;99.90;;;;;;5011681;28;20899;-51
2022/12/18 07:55:36;;;;;;;53.13;28.60;;;-5.80;99.90;;;;;;4993268;28;20504;-52
2022/12/18 07:58:04;;;;;;;51.63;26.43;;;-5.80;91.20;;;;;;4993553;28;20448;-52
2022/12/18 08:00:31;;;;;;;50.03;27.50;;;-5.70;99.90;;;;;;4993391;28;20532;-52
2022/12/18 08:02:58;;;;;;;47.40;27.70;;;-5.60;99.90;;;;;;4993318;28;21184;-52
2022/12/18 08:05:25;;;;;;;45.43;24.63;;;-5.60;89.00;;;;;;4994435;28;20527;-52
2022/12/18 08:07:51;;;;;;;51.50;27.07;;;-5.50;84.80;;;;;;4999321;28;20535;-53
2022/12/18 08:10:18;;;;;;;49.13;29.03;;;-5.30;99.90;;;;;;5012941;28;20459;-52
2022/12/18 08:12:45;;;;;;;48.60;27.50;;;-5.40;25.40;;;;;;5012833;28;20475;-52
2022/12/18 08:15:12;;;;;;;51.37;30.07;;;-5.40;23.70;;;;;;5012383;28;20907;-52
2022/12/18 08:17:39;;;;;;;47.27;29.13;;;-5.40;25.30;;;;;;5012531;28;20475;-52
2022/12/18 08:20:06;;;;;;;60.47;30.00;;;-5.40;20.20;;;;;;5006339;28;21025;-51
2022/12/18 08:22:35;;;;;;;53.37;29.57;;;-5.40;25.30;;;;;;4993051;28;20516;-51
2022/12/18 08:25:01;;;;;;;61.93;31.97;;;-5.50;32.00;;;;;;4992706;28;20535;-53
2022/12/18 08:27:28;;;;;;;49.97;28.60;;;-5.50;90.80;;;;;;4992844;28;20503;-52
2022/12/18 08:29:55;;;;;;;53.13;28.23;;;-5.50;23.80;;;;;;4993019;28;20641;-51
2022/12/18 08:32:22;;;;;;;47.20;27.10;;;-5.50;25.10;;;;;;4992719;28;20519;-52
2022/12/18 08:34:49;;;;;;;44.23;27.17;;;-5.80;24.90;;;;;;5004106;28;20532;-51
2022/12/18 08:37:15;;;;;;;51.60;28.17;;;-5.60;87.80;;;;;;5010006;28;20542;-51
2022/12/18 08:39:42;;;;;;;46.07;25.27;;;-5.70;72.70;;;;;;5012512;28;20530;-51
2022/12/18 08:44:53;;;;;;;48.50;26.67;;;-5.60;99.90;;;;;;5012431;28;20458;-51
2022/12/18 08:47:19;;;;;;;42.37;26.97;;;-5.70;20.20;;;;;;5009887;28;21020;-52
2022/12/18 08:49:47;;;;;;;53.27;28.83;;;-5.50;99.90;;;;;;5003967;28;20496;-52
2022/12/18 08:52:14;;;;;;;45.43;26.37;;;-5.50;88.90;;;;;;5000587;28;20440;-53
2022/12/18 08:54:40;;;;;;;45.80;26.30;;;-5.40;83.30;;;;;;4992254;28;20569;-52
2022/12/18 08:57:07;;;;;;;48.53;29.20;;;-5.30;96.60;;;;;;4991775;28;20535;-52
2022/12/18 08:59:34;;;;;;;49.40;26.60;;;-5.30;27.50;;;;;;4992371;28;20455;-52
2022/12/18 09:02:00;;;;;;;54.73;28.97;;;-5.30;27.30;;;;;;5005892;28;20551;-52
2022/12/18 09:04:26;;;;;;;48.87;26.97;;;-5.10;24.90;;;;;;5001123;28;20507;-52
2022/12/18 09:06:55;;;;;;;53.43;30.50;;;-5.20;42.10;;;;;;4992521;28;20480;-52
2022/12/18 09:09:22;;;;;;;47.57;28.73;;;-5.20;39.10;;;;;;4992199;28;20488;-52
2022/12/18 09:11:48;;;;;;;42.00;26.03;;;-5.20;41.80;;;;;;4992214;28;20487;-51
2022/12/18 09:14:15;;;;;;;49.60;27.43;;;-5.20;35.50;;;;;;4994126;28;20519;-57
2022/12/18 09:16:42;;;;;;;47.60;27.93;;;-5.20;36.80;;;;;;5002492;28;20476;-51
2022/12/18 09:19:10;;;;;;;46.83;26.70;;;-5.20;36.00;;;;;;5005669;28;20467;-52
2022/12/18 09:21:38;;;;;;;44.77;26.57;;;-5.40;40.20;;;;;;4990968;28;20877;-53
2022/12/18 09:24:07;;;;;;;43.60;26.60;;;-5.30;30.30;;;;;;4991936;28;20492;-52
2022/12/18 09:26:33;;;;;;;46.63;27.47;;;-5.20;28.60;;;;;;4992267;28;20892;-51
2022/12/18 09:29:00;;;;;;;52.43;27.57;;;-5.10;28.30;;;;;;4994663;28;20468;-52
2022/12/18 09:31:26;;;;;;;52.03;28.90;;;-5.20;33.80;;;;;;5000486;28;20995;-51
2022/12/18 09:33:53;;;;;;;55.77;29.83;;;-5.30;23.80;;;;;;5019958;22;20518;-52
2022/12/18 09:36:19;;;;;;;55.47;30.97;;;-5.20;20.90;;;;;;5034724;28;20434;-53
2022/12/18 09:38:46;;;;;;;53.83;30.13;;;-5.10;21.50;;;;;;5035915;28;20826;-52
2022/12/18 09:41:40;;;;;;;56.77;29.07;;;-5.10;25.80;;;;;;5032643;28;20494;-53
2022/12/18 09:44:20;;;;;;;46.57;27.73;;;-5.20;27.20;;;;;;5041465;28;20490;-53
2022/12/18 09:46:51;;;;;;;46.33;27.77;;;-5.20;80.40;;;;;;5042642;28;20443;-52
2022/12/18 09:49:23;;;;;;;45.40;26.60;;;-5.10;72.00;;;;;;5047453;28;20463;-53
2022/12/18 09:51:54;;;;;;;45.87;26.17;;;-5.10;27.10;;;;;;5045815;28;20474;-52
2022/12/18 09:54:23;;;;;;;48.57;25.37;;;-5.10;27.00;;;;;;5033789;28;20489;-52
2022/12/18 09:56:51;;;;;;;46.83;27.13;;;-5.00;28.60;;;;;;5032251;28;20956;-52
2022/12/18 09:59:23;;;;;;;46.73;28.73;;;-5.00;27.60;;;;;;5031970;28;20474;-51
2022/12/18 10:01:50;;;;;;;45.03;25.87;;;-5.00;27.00;;;;;;5030318;28;20907;-52
2022/12/18 10:04:17;;;;;;;51.20;26.70;;;-5.10;43.70;;;;;;5025651;28;20587;-52
2022/12/18 10:06:48;;;;;;;44.20;25.93;;;-5.00;24.90;;;;;;5031775;28;20471;-53
2022/12/18 10:09:26;;;;;;;39.00;25.30;;;-4.90;26.50;;;;;;5034911;28;20478;-51
2022/12/18 10:12:03;;;;;;;38.37;23.67;;;-5.00;36.80;;;;;;5035272;28;20486;-53
2022/12/18 10:14:36;;;;;;;39.63;25.20;;;-5.10;33.00;;;;;;5034793;28;20470;-53
2022/12/18 10:17:14;;;;;;;42.17;24.83;;;-5.10;31.20;;;;;;5033771;28;20549;-52
2022/12/18 10:19:49;;;;;;;41.13;24.83;;;-5.00;31.50;;;;;;5027548;28;20501;-53
2022/12/18 10:22:32;;;;;;;38.17;23.73;;;-4.90;33.40;;;;;;5035081;28;20924;-52
2022/12/18 10:25:04;;;;;;;38.10;23.27;;;-4.90;32.90;;;;;;5034642;28;20561;-52
2022/12/18 10:27:32;;;;;;;34.20;21.40;;;-4.90;42.80;;;;;;5035226;28;20501;-52
2022/12/18 10:30:00;;;;;;;36.13;22.23;;;-4.90;45.90;;;;;;5035370;28;20479;-52
2022/12/18 10:32:29;;;;;;;37.33;22.57;;;-4.80;40.00;;;;;;5034199;28;20585;-52
2022/12/18 10:34:58;;;;;;;35.90;22.13;;;-4.80;40.30;;;;;;5034308;28;20532;-52
2022/12/18 10:37:26;;;;;;;39.07;24.40;;;-4.80;41.70;;;;;;5034893;28;20470;-53
2022/12/18 10:40:09;;;;;;;37.17;22.20;;;-4.70;40.00;;;;;;5035000;28;20861;-52
2022/12/18 10:42:37;;;;;;;40.40;24.00;;;-5.00;25.80;;;;;;5034989;28;20819;-54
2022/12/18 10:45:09;;;;;;;48.33;26.30;;;-4.80;75.60;;;;;;5035054;28;20486;-53
2022/12/18 10:47:35;;;;;;;38.17;24.17;;;-4.70;21.10;;;;;;5036570;28;20489;-52
2022/12/18 10:50:02;;;;;;;41.33;24.80;;;-4.60;22.00;;;;;;5036867;28;20466;-52
2022/12/18 10:52:29;;;;;;;41.73;23.43;;;-4.60;32.60;;;;;;5036186;28;21003;-52
2022/12/18 10:54:58;;;;;;;38.80;23.97;;;-4.70;39.60;;;;;;5035792;28;20467;-52
2022/12/18 10:57:34;;;;;;;42.53;25.43;;;-4.70;35.90;;;;;;5036937;28;20809;-53
2022/12/18 11:00:22;;;;;;;41.20;24.40;;;-4.60;28.50;;;;;;5034126;28;20466;-52
2022/12/18 11:02:48;;;;;;;40.93;23.83;;;-4.70;35.10;;;;;;5030230;28;20514;-52
2022/12/18 11:05:28;;;;;;;36.40;21.60;;;-4.50;21.90;;;;;;5035761;28;20498;-51
2022/12/18 11:07:56;;;;;;;43.07;25.43;;;-4.50;23.30;;;;;;5034695;28;20713;-53
2022/12/18 11:10:26;;;;;;;44.20;25.90;;;-4.40;25.20;;;;;;5035143;28;20874;-53
2022/12/18 11:12:53;;;;;;;42.80;26.10;;;-4.40;28.40;;;;;;5035507;28;20490;-53
2022/12/18 11:15:25;;;;;;;42.80;25.63;;;-4.30;22.60;;;;;;5033964;28;20875;-54
2022/12/18 11:17:53;;;;;;;43.90;25.20;;;-4.30;30.40;;;;;;5035180;28;20451;-52
2022/12/18 11:20:31;;;;;;;40.57;24.07;;;-4.20;25.20;;;;;;5034243;28;20447;-54
2022/12/18 11:23:00;;;;;;;43.83;25.13;;;-4.20;82.30;;;;;;5034994;28;20846;-52
2022/12/18 11:25:27;;;;;;;43.60;24.97;;;-4.20;81.10;;;;;;5034329;28;20502;-52
2022/12/18 11:27:56;;;;;;;46.63;24.23;;;-4.20;89.80;;;;;;5034722;28;20489;-53
2022/12/18 11:30:27;;;;;;;42.53;24.00;;;-4.20;20.20;;;;;;5033179;28;20467;-52
2022/12/18 11:32:57;;;;;;;48.70;26.87;;;-4.10;91.10;;;;;;5034663;28;20435;-53
2022/12/18 11:35:36;;;;;;;42.10;24.97;;;-4.10;99.90;;;;;;5034055;28;20478;-52
2022/12/18 11:38:11;;;;;;;38.70;24.90;;;-4.10;93.70;;;;;;5035232;28;20458;-53
2022/12/18 11:40:40;;;;;;;51.23;25.70;;;-4.00;95.30;;;;;;5035428;28;20450;-51
2022/12/18 11:43:11;;;;;;;43.83;25.90;;;-3.90;99.90;;;;;;5035115;28;20514;-53
2022/12/18 11:45:43;;;;;;;44.37;24.40;;;-3.90;99.90;;;;;;5029438;28;20482;-53
2022/12/18 11:48:15;;;;;;;44.47;24.67;;;-3.90;99.90;;;;;;5034803;28;20794;-53
2022/12/18 11:50:48;;;;;;;40.80;24.80;;;-3.80;99.90;;;;;;5035752;28;20450;-54
2022/12/18 11:53:14;;;;;;;45.87;25.43;;;-3.80;99.90;;;;;;5035250;28;20473;-52
2022/12/18 11:55:50;;;;;;;49.10;25.60;;;-3.70;99.90;;;;;;5034883;28;20898;-52
2022/12/18 11:58:28;;;;;;;45.50;24.70;;;-3.70;80.10;;;;;;5034645;28;20482;-56
2022/12/18 12:01:05;;;;;;;41.83;24.97;;;-3.70;99.90;;;;;;5031966;28;20493;-52
2022/12/18 12:04:00;;;;;;;44.53;24.10;;;-3.70;99.90;;;;;;5036705;28;20509;-52
2022/12/18 12:06:39;;;;;;;49.53;25.97;;;-3.70;99.90;;;;;;5039711;28;20462;-54
2022/12/18 12:09:14;;;;;;;46.27;26.70;;;-3.60;99.90;;;;;;5042982;28;20512;-64
2022/12/18 12:11:50;;;;;;;41.33;25.00;;;-3.60;99.90;;;;;;5040499;28;20477;-53
2022/12/18 12:14:30;;;;;;;48.63;25.37;;;-3.50;99.90;;;;;;5041866;28;20467;-54
2022/12/18 12:17:07;;;;;;;42.50;25.40;;;-3.60;99.70;;;;;;5046518;28;20494;-53
2022/12/18 12:19:42;;;;;;;38.80;25.70;;;-3.60;95.00;;;;;;5048442;28;20454;-55
2022/12/18 12:22:16;;;;;;;51.70;24.37;;;-3.50;99.90;;;;;;5047670;28;20905;-53
2022/12/18 12:24:59;;;;;;;39.70;23.03;;;-3.50;99.90;;;;;;5044646;28;20544;-52
2022/12/18 12:27:36;;;;;;;43.60;24.07;;;-3.40;99.90;;;;;;5046551;28;20443;-53
2022/12/18 12:30:07;;;;;;;43.87;23.53;;;-3.40;99.90;;;;;;5038743;28;20495;-52
2022/12/18 12:32:48;;;;;;;50.87;27.13;;;-3.40;99.90;;;;;;5012637;28;20961;-54
2022/12/18 12:35:25;;;;;;;38.47;23.50;;;-3.40;99.90;;;;;;5013113;28;20507;-52
2022/12/18 12:37:59;;;;;;;40.03;23.97;;;-3.50;22.50;;;;;;5013749;28;20482;-52
2022/12/18 12:40:28;;;;;;;46.03;25.77;;;-3.40;99.90;;;;;;5013440;28;20904;-52
2022/12/18 12:43:13;;;;;;;40.57;24.07;;;-3.50;73.30;;;;;;5027252;28;20528;-52